createdAt,value
2023-04-26T00:04:11.679Z,100.00
2023-04-26T00:09:15.778Z,100.00
2023-04-26T00:14:18.470Z,100.00
2023-04-26T00:19:21.400Z,100.00
2023-04-26T00:24:26.981Z,100.00
2023-04-26T00:29:29.532Z,100.00
2023-04-26T00:34:35.957Z,100.00
2023-04-26T00:39:39.894Z,100.00
2023-04-26T00:44:42.505Z,100.00
2023-04-26T00:49:45.451Z,100.00
2023-04-26T00:54:51.414Z,100.00
2023-04-26T00:59:53.997Z,100.00
2023-04-26T01:04:56.759Z,100.00
2023-04-26T01:10:01.102Z,100.00
2023-04-26T01:15:04.924Z,100.00
2023-04-26T01:20:09.947Z,100.00
2023-04-26T01:25:14.096Z,100.00
2023-04-26T01:30:16.902Z,100.00
2023-04-26T01:35:19.754Z,100.00
2023-04-26T01:40:23.687Z,100.00
2023-04-26T01:45:26.257Z,100.00
2023-04-26T01:50:29.014Z,100.00
2023-04-26T01:55:32.998Z,100.00
2023-04-26T02:00:35.592Z,100.00
2023-04-26T02:05:38.193Z,100.00
2023-04-26T02:10:42.065Z,100.00
2023-04-26T02:15:48.061Z,100.00
2023-04-26T02:20:50.715Z,100.00
2023-04-26T02:25:55.027Z,100.00
2023-04-26T02:30:58.571Z,100.00
2023-04-26T02:36:03.312Z,100.00
2023-04-26T02:41:07.258Z,100.00
2023-04-26T02:46:09.852Z,100.00
2023-04-26T02:51:12.456Z,100.00
2023-04-26T02:56:16.452Z,100.00
2023-04-26T03:01:19.067Z,100.00
2023-04-26T03:06:22.612Z,100.00
2023-04-26T03:11:27.590Z,100.00
2023-04-26T03:16:30.270Z,100.00
2023-04-26T03:21:32.920Z,100.00
2023-04-26T03:26:36.787Z,100.00
2023-04-26T03:31:39.641Z,100.00
2023-04-26T03:36:42.370Z,100.00
2023-04-26T03:41:46.347Z,100.00
2023-04-26T03:46:48.942Z,100.00
2023-04-26T03:51:51.750Z,100.00
2023-04-26T03:56:55.667Z,100.00
2023-04-26T04:01:58.353Z,100.00
2023-04-26T04:07:02.091Z,100.00
2023-04-26T04:12:06.322Z,100.00
2023-04-26T04:17:09.885Z,100.00
2023-04-26T04:22:12.616Z,100.00
2023-04-26T04:27:16.575Z,100.00
2023-04-26T04:32:19.136Z,100.00
2023-04-26T04:37:22.895Z,100.00
2023-04-26T04:42:28.450Z,100.00
2023-04-26T04:47:31.080Z,100.00
2023-04-26T04:52:34.206Z,100.00
2023-04-26T04:57:38.649Z,100.00
2023-04-26T05:02:42.584Z,100.00
2023-04-26T05:07:45.371Z,100.00
2023-04-26T05:12:49.351Z,100.00
2023-04-26T05:17:52.278Z,100.00
2023-04-26T05:22:54.851Z,100.00
2023-04-26T05:27:58.787Z,100.00
2023-04-26T05:33:01.494Z,100.00
2023-04-26T05:38:04.902Z,100.00
2023-04-26T05:43:09.641Z,100.00
2023-04-26T05:48:12.365Z,100.00
2023-04-26T05:53:15.019Z,100.00
2023-04-26T05:58:19.714Z,100.00
2023-04-26T06:03:22.509Z,100.00
2023-04-26T06:08:25.307Z,100.00
2023-04-26T06:13:29.298Z,100.00
2023-04-26T06:18:31.937Z,100.00
2023-04-26T06:23:34.548Z,100.00
2023-04-26T06:28:39.532Z,100.00
2023-04-26T06:33:43.698Z,100.00
2023-04-26T06:38:46.296Z,100.00
2023-04-26T06:43:50.600Z,100.00
2023-04-26T06:48:55.114Z,100.00
2023-04-26T06:53:59.004Z,100.00
2023-04-26T06:59:05.119Z,100.00
2023-04-26T07:04:10.084Z,95.46
2023-04-26T07:09:13.236Z,93.29
2023-04-26T07:14:17.201Z,81.48
2023-04-26T07:19:20.072Z,74.50
2023-04-26T07:24:22.629Z,82.68
2023-04-26T07:29:26.632Z,77.72
2023-04-26T07:34:29.320Z,77.45
2023-04-26T07:39:32.094Z,81.53
2023-04-26T07:44:36.073Z,76.52
2023-04-26T07:49:38.720Z,74.68
2023-04-26T07:54:41.320Z,77.84
2023-04-26T07:59:45.261Z,72.83
2023-04-26T08:04:52.758Z,69.03
2023-04-26T08:09:56.601Z,62.76
2023-04-26T08:15:01.808Z,64.85
2023-04-26T08:20:06.030Z,69.57
2023-04-26T08:25:09.741Z,83.78
2023-04-26T08:30:14.255Z,82.37
2023-04-26T08:35:16.936Z,94.60
2023-04-26T08:40:24.449Z,100.00
2023-04-26T08:45:28.366Z,100.00
2023-04-26T08:50:33.547Z,100.00
2023-04-26T08:55:37.482Z,100.00
2023-04-26T09:00:44.529Z,100.00
2023-04-26T09:05:47.519Z,100.00
2023-04-26T09:10:50.096Z,100.00
2023-04-26T09:15:54.085Z,100.00
2023-04-26T09:21:04.755Z,100.00
2023-04-26T09:26:17.051Z,100.00
2023-04-26T09:31:39.473Z,100.00
2023-04-26T09:36:52.888Z,100.00
2023-04-26T09:41:55.648Z,100.00
2023-04-26T09:47:04.513Z,75.34
2023-04-26T09:52:07.489Z,69.49
2023-04-26T09:57:10.604Z,61.03
2023-04-26T10:02:17.950Z,55.94
2023-04-26T10:07:22.211Z,62.13
2023-04-26T10:12:25.053Z,72.82
2023-04-26T10:17:29.080Z,75.91
2023-04-26T10:22:35.032Z,78.95
2023-04-26T10:27:53.766Z,81.71
2023-04-26T10:33:19.091Z,84.82
2023-04-26T10:38:21.805Z,77.26
2023-04-26T10:43:31.969Z,68.39
2023-04-26T10:48:35.982Z,82.25
2023-04-26T10:53:59.694Z,94.87
2023-04-26T10:59:28.436Z,79.63
2023-04-26T11:04:54.683Z,73.33
2023-04-26T11:09:57.443Z,80.50
2023-04-26T11:15:01.229Z,88.83
2023-04-26T11:20:11.086Z,86.69
2023-04-26T11:25:14.240Z,78.96
2023-04-26T11:30:19.609Z,69.26
2023-04-26T11:35:24.844Z,57.95
2023-04-26T11:40:29.562Z,54.95
2023-04-26T11:45:33.969Z,53.04
2023-04-26T11:50:38.722Z,61.62
2023-04-26T11:55:41.915Z,67.41
2023-04-26T12:00:57.852Z,68.77
2023-04-26T12:06:02.347Z,80.70
2023-04-26T12:11:05.327Z,79.34
2023-04-26T12:16:22.199Z,85.95
2023-04-26T12:21:30.838Z,89.96
2023-04-26T12:26:45.773Z,84.25
2023-04-26T12:31:48.670Z,82.61
2023-04-26T12:36:52.732Z,82.78
2023-04-26T12:41:55.413Z,87.07
2023-04-26T12:46:58.411Z,100.00
2023-04-26T12:52:02.417Z,100.00
2023-04-26T12:57:05.112Z,100.00
2023-04-26T13:02:10.123Z,100.00
2023-04-26T13:07:14.182Z,100.00
2023-04-26T13:12:17.090Z,100.00
2023-04-26T13:17:19.721Z,100.00
2023-04-26T13:22:23.723Z,100.00
2023-04-26T13:27:28.399Z,94.43
2023-04-26T13:32:32.550Z,89.49
2023-04-26T13:37:36.525Z,78.01
2023-04-26T13:42:39.136Z,77.97
2023-04-26T13:47:41.925Z,76.45
2023-04-26T13:52:45.929Z,76.93
2023-04-26T13:57:48.455Z,78.56
2023-04-26T14:02:52.760Z,76.61
2023-04-26T14:07:58.716Z,79.92
2023-04-26T14:13:01.330Z,81.07
2023-04-26T14:18:03.931Z,87.51
2023-04-26T14:23:08.882Z,84.67
2023-04-26T14:28:12.529Z,87.64
2023-04-26T14:33:15.115Z,88.50
2023-04-26T14:38:19.071Z,85.46
2023-04-26T14:43:21.714Z,84.75
2023-04-26T14:48:24.338Z,80.03
2023-04-26T14:53:28.329Z,74.42
2023-04-26T14:58:31.061Z,68.75
2023-04-26T15:03:34.092Z,68.95
2023-04-26T15:08:38.424Z,65.15
2023-04-26T15:13:40.960Z,69.08
2023-04-26T15:18:44.217Z,69.08
2023-04-26T15:23:48.257Z,71.52
2023-04-26T15:28:51.168Z,70.41
2023-04-26T15:33:56.371Z,72.87
2023-04-26T15:39:00.315Z,78.92
2023-04-26T15:44:02.872Z,82.13
2023-04-26T15:49:05.494Z,87.77
2023-04-26T15:54:09.778Z,86.04
2023-04-26T15:59:12.497Z,83.03
2023-04-26T16:04:15.278Z,79.70
2023-04-26T16:09:25.238Z,77.35
2023-04-26T16:14:29.869Z,78.09
2023-04-26T16:19:32.610Z,83.51
2023-04-26T16:24:36.555Z,92.15
2023-04-26T16:29:39.201Z,97.84
2023-04-26T16:34:41.923Z,96.08
2023-04-26T16:39:45.877Z,94.88
2023-04-26T16:44:48.471Z,85.64
2023-04-26T16:49:51.088Z,90.99
2023-04-26T16:54:55.038Z,93.62
2023-04-26T16:59:57.645Z,87.55
2023-04-26T17:05:01.820Z,90.30
2023-04-26T17:10:07.450Z,91.16
2023-04-26T17:15:11.005Z,92.80
2023-04-26T17:20:13.996Z,97.15
2023-04-26T17:25:18.229Z,92.94
2023-04-26T17:30:21.291Z,93.99
2023-04-26T17:35:23.866Z,98.43
2023-04-26T17:40:27.813Z,98.54
2023-04-26T17:45:30.464Z,100.00
2023-04-26T17:50:33.015Z,100.00
2023-04-26T17:55:37.501Z,100.00
2023-04-26T18:00:40.114Z,100.00
2023-04-26T18:05:42.688Z,100.00
2023-04-26T18:10:48.422Z,100.00
2023-04-26T18:15:51.840Z,100.00
2023-04-26T18:20:54.440Z,100.00
2023-04-26T18:25:58.357Z,100.00
2023-04-26T18:31:01.871Z,100.00
2023-04-26T18:36:05.642Z,100.00
2023-04-26T18:41:09.552Z,100.00
2023-04-26T18:46:12.164Z,100.00
2023-04-26T18:51:14.779Z,100.00
2023-04-26T18:56:18.748Z,100.00
2023-04-26T19:01:21.444Z,100.00
2023-04-26T19:06:24.063Z,100.00
2023-04-26T19:11:28.064Z,100.00
2023-04-26T19:16:30.902Z,100.00
2023-04-26T19:21:33.780Z,100.00
2023-04-26T19:26:38.056Z,100.00
2023-04-26T19:31:40.669Z,100.00
2023-04-26T19:36:43.495Z,100.00
2023-04-26T19:41:47.432Z,100.00
2023-04-26T19:46:49.996Z,100.00
2023-04-26T19:51:53.566Z,100.00
2023-04-26T19:56:57.314Z,100.00
2023-04-26T20:01:59.906Z,100.00
2023-04-26T20:07:04.946Z,100.00
2023-04-26T20:12:08.984Z,100.00
2023-04-26T20:17:11.647Z,100.00
2023-04-26T20:22:14.223Z,100.00
2023-04-26T20:27:18.111Z,100.00
2023-04-26T20:32:20.915Z,100.00
2023-04-26T20:37:23.650Z,100.00
2023-04-26T20:42:27.747Z,100.00
2023-04-26T20:47:30.478Z,100.00
2023-04-26T20:52:33.146Z,100.00
2023-04-26T20:57:38.445Z,100.00
2023-04-26T21:02:41.694Z,100.00
2023-04-26T21:07:44.402Z,100.00
2023-04-26T21:12:48.651Z,100.00
2023-04-26T21:17:51.350Z,100.00
2023-04-26T21:22:53.993Z,100.00
2023-04-26T21:27:58.859Z,100.00
2023-04-26T21:33:01.466Z,100.00
2023-04-26T21:38:04.391Z,100.00
2023-04-26T21:43:08.288Z,100.00
2023-04-26T21:48:10.873Z,100.00
2023-04-26T21:53:13.437Z,100.00
2023-04-26T21:58:17.386Z,100.00
2023-04-26T22:03:20.146Z,100.00
2023-04-26T22:08:22.783Z,100.00
2023-04-26T22:13:26.775Z,100.00
2023-04-26T22:18:29.431Z,100.00
2023-04-26T22:23:32.095Z,100.00
2023-04-26T22:28:36.222Z,100.00
2023-04-26T22:33:38.848Z,100.00
2023-04-26T22:38:41.493Z,100.00
2023-04-26T22:43:45.413Z,100.00
2023-04-26T22:48:48.009Z,100.00
2023-04-26T22:53:50.592Z,100.00
2023-04-26T22:58:54.536Z,100.00
2023-04-26T23:03:57.117Z,100.00
2023-04-26T23:08:59.909Z,100.00
2023-04-26T23:14:04.945Z,100.00
2023-04-26T23:19:09.698Z,100.00
2023-04-26T23:24:13.426Z,100.00
2023-04-26T23:29:17.411Z,100.00
2023-04-26T23:34:20.031Z,100.00
2023-04-26T23:39:22.643Z,100.00
2023-04-26T23:44:26.684Z,100.00
2023-04-26T23:49:29.387Z,100.00
2023-04-26T23:54:32.169Z,100.00
2023-04-26T23:59:36.111Z,100.00
